sensor_id;sensor_type;location;lat;lon;timestamp;pressure;altitude;pressure_sealevel;temperature;humidity
66273;BME280;58450;52.150;4.466;2023-05-29T00:01:27;102486.91;;;12.40;100.00
66273;BME280;58450;52.150;4.466;2023-05-29T00:03:55;102487.56;;;12.34;100.00
66273;BME280;58450;52.150;4.466;2023-05-29T00:06:23;102478.13;;;12.38;100.00
66273;BME280;58450;52.150;4.466;2023-05-29T00:08:52;102489.47;;;12.41;100.00
66273;BME280;58450;52.150;4.466;2023-05-29T00:11:20;102483.06;;;12.43;100.00
66273;BME280;58450;52.150;4.466;2023-05-29T00:13:47;102486.91;;;12.40;100.00
66273;BME280;58450;52.150;4.466;2023-05-29T00:16:15;102479.31;;;12.35;100.00
66273;BME280;58450;52.150;4.466;2023-05-29T00:18:43;102481.50;;;12.32;100.00
66273;BME280;58450;52.150;4.466;2023-05-29T00:21:12;102487.19;;;12.29;100.00
66273;BME280;58450;52.150;4.466;2023-05-29T00:23:40;102493.91;;;12.24;100.00
66273;BME280;58450;52.150;4.466;2023-05-29T00:26:09;102495.44;;;12.27;100.00
66273;BME280;58450;52.150;4.466;2023-05-29T00:28:36;102493.06;;;12.24;100.00
66273;BME280;58450;52.150;4.466;2023-05-29T00:31:04;102493.16;;;12.14;100.00
66273;BME280;58450;52.150;4.466;2023-05-29T00:33:32;102499.41;;;12.15;100.00
66273;BME280;58450;52.150;4.466;2023-05-29T00:36:00;102502.25;;;12.13;100.00
66273;BME280;58450;52.150;4.466;2023-05-29T00:38:27;102501.03;;;12.07;100.00
66273;BME280;58450;52.150;4.466;2023-05-29T00:40:55;102504.91;;;12.05;100.00
66273;BME280;58450;52.150;4.466;2023-05-29T00:43:23;102512.00;;;12.06;100.00
66273;BME280;58450;52.150;4.466;2023-05-29T00:45:51;102514.13;;;12.02;100.00
66273;BME280;58450;52.150;4.466;2023-05-29T00:48:18;102507.72;;;12.03;100.00
66273;BME280;58450;52.150;4.466;2023-05-29T00:50:46;102505.34;;;12.00;100.00
66273;BME280;58450;52.150;4.466;2023-05-29T00:53:15;102511.03;;;11.97;100.00
66273;BME280;58450;52.150;4.466;2023-05-29T00:55:42;102506.63;;;11.96;100.00
66273;BME280;58450;52.150;4.466;2023-05-29T00:58:11;102513.19;;;11.93;100.00
66273;BME280;58450;52.150;4.466;2023-05-29T01:00:40;102512.31;;;11.93;100.00
66273;BME280;58450;52.150;4.466;2023-05-29T01:03:09;102512.50;;;11.91;100.00
66273;BME280;58450;52.150;4.466;2023-05-29T01:05:43;102518.06;;;11.90;100.00
66273;BME280;58450;52.150;4.466;2023-05-29T01:08:11;102520.06;;;11.88;100.00
66273;BME280;58450;52.150;4.466;2023-05-29T01:10:39;102524.22;;;11.82;100.00
66273;BME280;58450;52.150;4.466;2023-05-29T01:13:12;102523.69;;;11.78;100.00
66273;BME280;58450;52.150;4.466;2023-05-29T01:15:52;102528.91;;;11.80;100.00
66273;BME280;58450;52.150;4.466;2023-05-29T01:18:32;102528.38;;;11.76;100.00
66273;BME280;58450;52.150;4.466;2023-05-29T01:21:11;102532.09;;;11.75;100.00
66273;BME280;58450;52.150;4.466;2023-05-29T01:24:01;102531.22;;;11.75;100.00
66273;BME280;58450;52.150;4.466;2023-05-29T01:26:47;102529.53;;;11.74;100.00
66273;BME280;58450;52.150;4.466;2023-05-29T01:29:19;102530.69;;;11.71;100.00
66273;BME280;58450;52.150;4.466;2023-05-29T01:31:51;102531.84;;;11.68;100.00
66273;BME280;58450;52.150;4.466;2023-05-29T01:34:20;102530.84;;;11.70;100.00
66273;BME280;58450;52.150;4.466;2023-05-29T01:36:47;102532.44;;;11.62;100.00
66273;BME280;58450;52.150;4.466;2023-05-29T01:39:15;102535.00;;;11.64;100.00
66273;BME280;58450;52.150;4.466;2023-05-29T01:41:45;102533.44;;;11.61;100.00
66273;BME280;58450;52.150;4.466;2023-05-29T01:44:15;102537.59;;;11.56;100.00
66273;BME280;58450;52.150;4.466;2023-05-29T01:46:44;102541.59;;;11.51;100.00
66273;BME280;58450;52.150;4.466;2023-05-29T01:49:13;102548.00;;;11.50;100.00
66273;BME280;58450;52.150;4.466;2023-05-29T01:51:42;102547.69;;;11.53;100.00
66273;BME280;58450;52.150;4.466;2023-05-29T01:54:10;102543.13;;;11.54;100.00
66273;BME280;58450;52.150;4.466;2023-05-29T01:56:38;102549.53;;;11.53;100.00
66273;BME280;58450;52.150;4.466;2023-05-29T01:59:07;102548.84;;;11.51;100.00
66273;BME280;58450;52.150;4.466;2023-05-29T02:01:38;102544.78;;;11.47;100.00
66273;BME280;58450;52.150;4.466;2023-05-29T02:04:06;102550.59;;;11.42;100.00
66273;BME280;58450;52.150;4.466;2023-05-29T02:06:33;102549.91;;;11.40;100.00
66273;BME280;58450;52.150;4.466;2023-05-29T02:09:01;102551.91;;;11.38;100.00
66273;BME280;58450;52.150;4.466;2023-05-29T02:11:29;102567.78;;;11.41;100.00
66273;BME280;58450;52.150;4.466;2023-05-29T02:13:56;102559.69;;;11.41;100.00
66273;BME280;58450;52.150;4.466;2023-05-29T02:16:25;102563.38;;;11.40;100.00
66273;BME280;58450;52.150;4.466;2023-05-29T02:18:53;102565.53;;;11.36;100.00
66273;BME280;58450;52.150;4.466;2023-05-29T02:21:21;102559.59;;;11.33;100.00
66273;BME280;58450;52.150;4.466;2023-05-29T02:23:48;102553.34;;;11.32;100.00
66273;BME280;58450;52.150;4.466;2023-05-29T02:26:16;102553.50;;;11.31;100.00
66273;BME280;58450;52.150;4.466;2023-05-29T02:28:43;102547.41;;;11.29;100.00
66273;BME280;58450;52.150;4.466;2023-05-29T02:31:11;102538.63;;;11.27;100.00
66273;BME280;58450;52.150;4.466;2023-05-29T02:33:40;102541.19;;;11.28;100.00
66273;BME280;58450;52.150;4.466;2023-05-29T02:36:08;102551.78;;;11.30;100.00
66273;BME280;58450;52.150;4.466;2023-05-29T02:38:36;102547.09;;;11.32;100.00
66273;BME280;58450;52.150;4.466;2023-05-29T02:41:03;102553.50;;;11.31;100.00
66273;BME280;58450;52.150;4.466;2023-05-29T02:43:31;102553.09;;;11.26;100.00
66273;BME280;58450;52.150;4.466;2023-05-29T02:45:59;102555.53;;;11.19;100.00
66273;BME280;58450;52.150;4.466;2023-05-29T02:48:27;102567.03;;;11.21;100.00
66273;BME280;58450;52.150;4.466;2023-05-29T02:50:56;102567.16;;;11.19;100.00
66273;BME280;58450;52.150;4.466;2023-05-29T02:53:24;102559.25;;;11.18;100.00
66273;BME280;58450;52.150;4.466;2023-05-29T02:55:51;102560.38;;;11.15;100.00
66273;BME280;58450;52.150;4.466;2023-05-29T02:58:19;102555.69;;;11.17;100.00
66273;BME280;58450;52.150;4.466;2023-05-29T03:00:47;102561.06;;;11.17;100.00
66273;BME280;58450;52.150;4.466;2023-05-29T03:03:14;102561.38;;;11.14;100.00
66273;BME280;58450;52.150;4.466;2023-05-29T03:05:41;102575.69;;;11.15;100.00
66273;BME280;58450;52.150;4.466;2023-05-29T03:08:10;102564.06;;;11.14;100.00
66273;BME280;58450;52.150;4.466;2023-05-29T03:10:38;102577.69;;;11.13;100.00
66273;BME280;58450;52.150;4.466;2023-05-29T03:13:06;102557.97;;;11.12;100.00
66273;BME280;58450;52.150;4.466;2023-05-29T03:15:33;102556.28;;;11.11;100.00
66273;BME280;58450;52.150;4.466;2023-05-29T03:18:01;102546.78;;;11.07;100.00
66273;BME280;58450;52.150;4.466;2023-05-29T03:20:28;102564.13;;;11.04;100.00
66273;BME280;58450;52.150;4.466;2023-05-29T03:22:56;102554.09;;;10.97;100.00
66273;BME280;58450;52.150;4.466;2023-05-29T03:25:25;102555.19;;;11.04;100.00
66273;BME280;58450;52.150;4.466;2023-05-29T03:27:52;102557.19;;;11.02;100.00
66273;BME280;58450;52.150;4.466;2023-05-29T03:30:20;102552.09;;;10.99;100.00
66273;BME280;58450;52.150;4.466;2023-05-29T03:32:48;102547.84;;;10.96;100.00
66273;BME280;58450;52.150;4.466;2023-05-29T03:35:15;102560.47;;;10.96;100.00
66273;BME280;58450;52.150;4.466;2023-05-29T03:37:43;102555.91;;;10.96;100.00
66273;BME280;58450;52.150;4.466;2023-05-29T03:40:11;102552.94;;;10.99;100.00
66273;BME280;58450;52.150;4.466;2023-05-29T03:42:41;102563.00;;;10.97;100.00
66273;BME280;58450;52.150;4.466;2023-05-29T03:45:09;102558.31;;;10.99;100.00
66273;BME280;58450;52.150;4.466;2023-05-29T03:47:37;102562.88;;;10.99;100.00
66273;BME280;58450;52.150;4.466;2023-05-29T03:50:05;102570.66;;;11.02;100.00
66273;BME280;58450;52.150;4.466;2023-05-29T03:52:33;102565.09;;;11.03;100.00
66273;BME280;58450;52.150;4.466;2023-05-29T03:55:01;102575.59;;;11.06;100.00
66273;BME280;58450;52.150;4.466;2023-05-29T03:57:29;102566.97;;;11.03;100.00
66273;BME280;58450;52.150;4.466;2023-05-29T03:59:58;102583.50;;;11.08;100.00
66273;BME280;58450;52.150;4.466;2023-05-29T04:02:25;102579.28;;;11.05;100.00
66273;BME280;58450;52.150;4.466;2023-05-29T04:04:53;102577.03;;;11.01;100.00
66273;BME280;58450;52.150;4.466;2023-05-29T04:07:21;102581.09;;;11.05;100.00
66273;BME280;58450;52.150;4.466;2023-05-29T04:09:48;102589.06;;;11.06;100.00
66273;BME280;58450;52.150;4.466;2023-05-29T04:12:16;102577.81;;;11.11;100.00
66273;BME280;58450;52.150;4.466;2023-05-29T04:14:43;102585.31;;;11.17;100.00
66273;BME280;58450;52.150;4.466;2023-05-29T04:17:12;102580.34;;;11.22;100.00
66273;BME280;58450;52.150;4.466;2023-05-29T04:19:40;102580.63;;;11.19;100.00
66273;BME280;58450;52.150;4.466;2023-05-29T04:22:07;102574.94;;;11.22;100.00
66273;BME280;58450;52.150;4.466;2023-05-29T04:24:35;102586.13;;;11.28;100.00
66273;BME280;58450;52.150;4.466;2023-05-29T04:27:02;102585.84;;;11.31;100.00
66273;BME280;58450;52.150;4.466;2023-05-29T04:29:30;102579.59;;;11.30;100.00
66273;BME280;58450;52.150;4.466;2023-05-29T04:32:00;102582.53;;;11.37;100.00
66273;BME280;58450;52.150;4.466;2023-05-29T04:34:30;102585.63;;;11.42;100.00
66273;BME280;58450;52.150;4.466;2023-05-29T04:36:58;102596.81;;;11.47;100.00
66273;BME280;58450;52.150;4.466;2023-05-29T04:39:26;102600.22;;;11.49;100.00
66273;BME280;58450;52.150;4.466;2023-05-29T04:41:53;102595.22;;;11.55;100.00
66273;BME280;58450;52.150;4.466;2023-05-29T04:44:22;102594.22;;;11.56;100.00
66273;BME280;58450;52.150;4.466;2023-05-29T04:46:52;102602.22;;;11.47;100.00
66273;BME280;58450;52.150;4.466;2023-05-29T04:49:20;102598.34;;;11.50;100.00
66273;BME280;58450;52.150;4.466;2023-05-29T04:51:49;102608.00;;;11.52;100.00
66273;BME280;58450;52.150;4.466;2023-05-29T04:54:21;102605.31;;;11.52;100.00
66273;BME280;58450;52.150;4.466;2023-05-29T04:56:50;102609.47;;;11.47;100.00
66273;BME280;58450;52.150;4.466;2023-05-29T04:59:17;102592.94;;;11.60;100.00
66273;BME280;58450;52.150;4.466;2023-05-29T05:01:44;102607.41;;;11.59;100.00
66273;BME280;58450;52.150;4.466;2023-05-29T05:04:13;102611.75;;;11.70;100.00
66273;BME280;58450;52.150;4.466;2023-05-29T05:06:41;102610.31;;;11.75;100.00
66273;BME280;58450;52.150;4.466;2023-05-29T05:09:11;102611.69;;;11.79;100.00
66273;BME280;58450;52.150;4.466;2023-05-29T05:11:38;102618.50;;;11.83;100.00
66273;BME280;58450;52.150;4.466;2023-05-29T05:14:06;102614.50;;;11.88;100.00
66273;BME280;58450;52.150;4.466;2023-05-29T05:16:33;102614.53;;;11.96;100.00
66273;BME280;58450;52.150;4.466;2023-05-29T05:19:01;102621.38;;;12.00;100.00
66273;BME280;58450;52.150;4.466;2023-05-29T05:21:28;102614.53;;;12.06;100.00
66273;BME280;58450;52.150;4.466;2023-05-29T05:23:57;102609.22;;;12.14;100.00
66273;BME280;58450;52.150;4.466;2023-05-29T05:26:26;102614.31;;;12.17;100.00
66273;BME280;58450;52.150;4.466;2023-05-29T05:28:53;102611.22;;;12.30;100.00
66273;BME280;58450;52.150;4.466;2023-05-29T05:31:21;102612.69;;;12.24;100.00
66273;BME280;58450;52.150;4.466;2023-05-29T05:33:49;102614.91;;;12.29;100.00
66273;BME280;58450;52.150;4.466;2023-05-29T05:36:16;102614.81;;;12.39;100.00
66273;BME280;58450;52.150;4.466;2023-05-29T05:38:44;102620.16;;;12.49;100.00
66273;BME280;58450;52.150;4.466;2023-05-29T05:41:11;102625.31;;;12.60;100.00
66273;BME280;58450;52.150;4.466;2023-05-29T05:43:40;102624.19;;;12.71;100.00
66273;BME280;58450;52.150;4.466;2023-05-29T05:46:08;102633.63;;;12.67;100.00
66273;BME280;58450;52.150;4.466;2023-05-29T05:48:35;102634.00;;;12.98;100.00
66273;BME280;58450;52.150;4.466;2023-05-29T05:51:03;102635.00;;;12.97;100.00
66273;BME280;58450;52.150;4.466;2023-05-29T05:53:31;102633.28;;;13.14;100.00
66273;BME280;58450;52.150;4.466;2023-05-29T05:55:58;102634.53;;;13.28;100.00
66273;BME280;58450;52.150;4.466;2023-05-29T05:58:26;102633.56;;;13.38;100.00
66273;BME280;58450;52.150;4.466;2023-05-29T06:00:55;102633.63;;;13.46;100.00
66273;BME280;58450;52.150;4.466;2023-05-29T06:03:23;102629.91;;;13.47;100.00
66273;BME280;58450;52.150;4.466;2023-05-29T06:05:50;102634.03;;;13.59;100.00
66273;BME280;58450;52.150;4.466;2023-05-29T06:08:20;102642.41;;;13.91;100.00
66273;BME280;58450;52.150;4.466;2023-05-29T06:10:47;102628.03;;;13.99;100.00
66273;BME280;58450;52.150;4.466;2023-05-29T06:13:15;102636.47;;;13.96;100.00
66273;BME280;58450;52.150;4.466;2023-05-29T06:15:43;102644.09;;;13.92;100.00
66273;BME280;58450;52.150;4.466;2023-05-29T06:18:13;102636.16;;;13.99;100.00
66273;BME280;58450;52.150;4.466;2023-05-29T06:20:41;102644.66;;;14.12;100.00
66273;BME280;58450;52.150;4.466;2023-05-29T06:23:08;102646.03;;;14.33;100.00
66273;BME280;58450;52.150;4.466;2023-05-29T06:25:36;102643.16;;;14.51;100.00
66273;BME280;58450;52.150;4.466;2023-05-29T06:28:04;102648.06;;;14.64;100.00
66273;BME280;58450;52.150;4.466;2023-05-29T06:30:32;102649.44;;;14.85;100.00
66273;BME280;58450;52.150;4.466;2023-05-29T06:33:00;102646.38;;;14.96;100.00
66273;BME280;58450;52.150;4.466;2023-05-29T06:35:29;102647.91;;;14.99;100.00
66273;BME280;58450;52.150;4.466;2023-05-29T06:37:57;102646.84;;;15.08;100.00
66273;BME280;58450;52.150;4.466;2023-05-29T06:40:24;102639.63;;;15.40;100.00
66273;BME280;58450;52.150;4.466;2023-05-29T06:42:52;102640.06;;;15.60;100.00
66273;BME280;58450;52.150;4.466;2023-05-29T06:45:19;102649.41;;;15.58;100.00
66273;BME280;58450;52.150;4.466;2023-05-29T06:47:47;102648.34;;;15.67;100.00
66273;BME280;58450;52.150;4.466;2023-05-29T06:50:14;102652.00;;;15.83;100.00
66273;BME280;58450;52.150;4.466;2023-05-29T06:52:43;102645.38;;;15.85;99.58
66273;BME280;58450;52.150;4.466;2023-05-29T06:55:11;102655.63;;;15.66;98.79
66273;BME280;58450;52.150;4.466;2023-05-29T06:57:38;102653.56;;;16.08;100.00
66273;BME280;58450;52.150;4.466;2023-05-29T07:00:07;102650.78;;;15.93;97.71
66273;BME280;58450;52.150;4.466;2023-05-29T07:02:37;102648.22;;;16.23;98.82
66273;BME280;58450;52.150;4.466;2023-05-29T07:05:05;102653.00;;;16.45;95.54
66273;BME280;58450;52.150;4.466;2023-05-29T07:07:33;102652.66;;;16.63;93.26
66273;BME280;58450;52.150;4.466;2023-05-29T07:10:02;102652.44;;;16.88;91.96
66273;BME280;58450;52.150;4.466;2023-05-29T07:12:30;102651.94;;;17.07;90.93
66273;BME280;58450;52.150;4.466;2023-05-29T07:14:57;102657.19;;;17.39;90.75
66273;BME280;58450;52.150;4.466;2023-05-29T07:17:25;102659.34;;;17.43;89.61
66273;BME280;58450;52.150;4.466;2023-05-29T07:19:52;102656.34;;;17.23;86.47
66273;BME280;58450;52.150;4.466;2023-05-29T07:22:20;102668.13;;;17.01;88.02
66273;BME280;58450;52.150;4.466;2023-05-29T07:24:47;102667.31;;;17.00;89.95
66273;BME280;58450;52.150;4.466;2023-05-29T07:27:16;102669.47;;;17.05;85.77
66273;BME280;58450;52.150;4.466;2023-05-29T07:29:44;102673.31;;;17.40;87.64
66273;BME280;58450;52.150;4.466;2023-05-29T07:32:11;102681.94;;;17.74;85.01
66273;BME280;58450;52.150;4.466;2023-05-29T07:34:38;102683.84;;;17.58;82.06
66273;BME280;58450;52.150;4.466;2023-05-29T07:37:06;102681.72;;;17.91;80.64
66273;BME280;58450;52.150;4.466;2023-05-29T07:39:35;102680.28;;;17.95;79.31
66273;BME280;58450;52.150;4.466;2023-05-29T07:42:03;102678.84;;;18.14;77.99
66273;BME280;58450;52.150;4.466;2023-05-29T07:44:33;102682.38;;;18.29;76.26
66273;BME280;58450;52.150;4.466;2023-05-29T07:47:01;102672.50;;;18.50;77.29
66273;BME280;58450;52.150;4.466;2023-05-29T07:49:28;102668.44;;;18.89;74.81
66273;BME280;58450;52.150;4.466;2023-05-29T07:51:56;102669.09;;;19.20;72.13
66273;BME280;58450;52.150;4.466;2023-05-29T07:54:23;102672.56;;;19.36;70.91
66273;BME280;58450;52.150;4.466;2023-05-29T07:56:51;102670.91;;;19.48;69.77
66273;BME280;58450;52.150;4.466;2023-05-29T07:59:18;102679.00;;;19.70;69.32
66273;BME280;58450;52.150;4.466;2023-05-29T08:01:48;102680.78;;;19.42;69.57
66273;BME280;58450;52.150;4.466;2023-05-29T08:04:15;102679.81;;;19.22;70.46
66273;BME280;58450;52.150;4.466;2023-05-29T08:06:43;102681.88;;;19.19;70.55
66273;BME280;58450;52.150;4.466;2023-05-29T08:09:11;102692.75;;;18.84;70.79
66273;BME280;58450;52.150;4.466;2023-05-29T08:11:39;102683.41;;;18.28;72.35
66273;BME280;58450;52.150;4.466;2023-05-29T08:14:06;102687.69;;;18.16;72.88
66273;BME280;58450;52.150;4.466;2023-05-29T08:16:34;102680.69;;;18.28;73.57
66273;BME280;58450;52.150;4.466;2023-05-29T08:19:03;102690.47;;;18.01;73.94
66273;BME280;58450;52.150;4.466;2023-05-29T08:21:31;102688.44;;;17.58;73.99
66273;BME280;58450;52.150;4.466;2023-05-29T08:23:58;102695.50;;;17.52;75.31
66273;BME280;58450;52.150;4.466;2023-05-29T08:26:26;102698.84;;;17.24;76.14
66273;BME280;58450;52.150;4.466;2023-05-29T08:28:54;102691.53;;;17.55;76.94
66273;BME280;58450;52.150;4.466;2023-05-29T08:31:22;102697.91;;;17.62;75.26
66273;BME280;58450;52.150;4.466;2023-05-29T08:33:51;102697.03;;;18.28;73.90
66273;BME280;58450;52.150;4.466;2023-05-29T08:36:20;102695.34;;;18.71;73.02
66273;BME280;58450;52.150;4.466;2023-05-29T08:38:48;102692.34;;;19.44;71.62
66273;BME280;58450;52.150;4.466;2023-05-29T08:41:20;102700.03;;;19.76;68.92
66273;BME280;58450;52.150;4.466;2023-05-29T08:43:52;102699.81;;;20.26;67.02
66273;BME280;58450;52.150;4.466;2023-05-29T08:46:20;102691.63;;;20.26;65.46
66273;BME280;58450;52.150;4.466;2023-05-29T08:48:49;102698.63;;;19.87;65.27
66273;BME280;58450;52.150;4.466;2023-05-29T08:51:20;102690.81;;;19.35;65.27
66273;BME280;58450;52.150;4.466;2023-05-29T08:53:48;102704.78;;;19.54;66.63
66273;BME280;58450;52.150;4.466;2023-05-29T08:56:17;102715.84;;;19.87;66.66
66273;BME280;58450;52.150;4.466;2023-05-29T08:58:48;102707.66;;;19.81;64.35
66273;BME280;58450;52.150;4.466;2023-05-29T09:01:17;102707.03;;;19.85;63.84
66273;BME280;58450;52.150;4.466;2023-05-29T09:03:46;102699.22;;;19.82;64.60
66273;BME280;58450;52.150;4.466;2023-05-29T09:06:14;102694.50;;;19.56;63.59
66273;BME280;58450;52.150;4.466;2023-05-29T09:08:45;102698.81;;;19.85;63.55
66273;BME280;58450;52.150;4.466;2023-05-29T09:11:14;102703.50;;;19.98;63.28
66273;BME280;58450;52.150;4.466;2023-05-29T09:13:41;102699.28;;;19.89;62.85
66273;BME280;58450;52.150;4.466;2023-05-29T09:16:09;102703.16;;;20.08;64.01
66273;BME280;58450;52.150;4.466;2023-05-29T09:18:37;102705.28;;;20.33;63.07
66273;BME280;58450;52.150;4.466;2023-05-29T09:21:06;102703.03;;;20.63;62.32
66273;BME280;58450;52.150;4.466;2023-05-29T09:23:35;102693.31;;;21.28;60.58
66273;BME280;58450;52.150;4.466;2023-05-29T09:26:04;102706.53;;;21.51;60.82
66273;BME280;58450;52.150;4.466;2023-05-29T09:28:32;102702.91;;;21.71;59.24
66273;BME280;58450;52.150;4.466;2023-05-29T09:30:59;102686.50;;;22.03;58.53
66273;BME280;58450;52.150;4.466;2023-05-29T09:33:27;102695.41;;;22.31;56.86
66273;BME280;58450;52.150;4.466;2023-05-29T09:35:54;102695.59;;;22.68;56.52
66273;BME280;58450;52.150;4.466;2023-05-29T09:38:22;102692.28;;;22.27;56.01
66273;BME280;58450;52.150;4.466;2023-05-29T09:40:49;102707.31;;;22.56;55.93
66273;BME280;58450;52.150;4.466;2023-05-29T09:43:19;102699.91;;;22.57;55.59
66273;BME280;58450;52.150;4.466;2023-05-29T09:45:50;102698.75;;;22.39;55.32
66273;BME280;58450;52.150;4.466;2023-05-29T09:48:19;102695.59;;;22.04;56.64
66273;BME280;58450;52.150;4.466;2023-05-29T09:50:50;102693.13;;;21.89;57.91
66273;BME280;58450;52.150;4.466;2023-05-29T09:53:20;102693.66;;;21.59;57.02
66273;BME280;58450;52.150;4.466;2023-05-29T09:55:50;102686.50;;;21.58;58.27
66273;BME280;58450;52.150;4.466;2023-05-29T09:58:20;102676.88;;;21.94;57.53
66273;BME280;58450;52.150;4.466;2023-05-29T10:00:50;102683.59;;;21.98;54.40
66273;BME280;58450;52.150;4.466;2023-05-29T10:03:18;102682.03;;;21.70;54.18
66273;BME280;58450;52.150;4.466;2023-05-29T10:05:49;102675.31;;;21.59;54.93
66273;BME280;58450;52.150;4.466;2023-05-29T10:08:19;102671.38;;;21.94;55.34
66273;BME280;58450;52.150;4.466;2023-05-29T10:10:53;102679.75;;;22.45;53.97
66273;BME280;58450;52.150;4.466;2023-05-29T10:13:28;102677.19;;;22.75;53.51
66273;BME280;58450;52.150;4.466;2023-05-29T10:16:03;102676.28;;;23.00;52.64
66273;BME280;58450;52.150;4.466;2023-05-29T10:18:37;102670.56;;;23.27;51.39
66273;BME280;58450;52.150;4.466;2023-05-29T10:21:07;102672.03;;;23.29;50.89
66273;BME280;58450;52.150;4.466;2023-05-29T10:23:40;102685.63;;;23.17;50.32
66273;BME280;58450;52.150;4.466;2023-05-29T10:26:15;102684.25;;;23.08;48.22
66273;BME280;58450;52.150;4.466;2023-05-29T10:28:55;102684.22;;;23.52;48.38
66273;BME280;58450;52.150;4.466;2023-05-29T10:31:38;102690.00;;;23.63;47.70
66273;BME280;58450;52.150;4.466;2023-05-29T10:34:23;102692.03;;;23.37;48.12
66273;BME280;58450;52.150;4.466;2023-05-29T10:37:04;102676.09;;;23.20;48.46
66273;BME280;58450;52.150;4.466;2023-05-29T10:39:36;102673.47;;;22.88;50.40
66273;BME280;58450;52.150;4.466;2023-05-29T10:42:40;102682.81;;;22.23;50.84
66273;BME280;58450;52.150;4.466;2023-05-29T10:45:10;102676.66;;;22.85;50.54
66273;BME280;58450;52.150;4.466;2023-05-29T10:48:38;102663.38;;;23.26;50.54
66273;BME280;58450;52.150;4.466;2023-05-29T10:51:08;102660.63;;;23.26;50.78
66273;BME280;58450;52.150;4.466;2023-05-29T10:53:51;102664.09;;;22.52;49.66
66273;BME280;58450;52.150;4.466;2023-05-29T10:56:22;102667.31;;;22.93;49.07
66273;BME280;58450;52.150;4.466;2023-05-29T10:58:55;102679.81;;;23.07;49.52
66273;BME280;58450;52.150;4.466;2023-05-29T11:01:29;102675.94;;;23.15;49.97
66273;BME280;58450;52.150;4.466;2023-05-29T11:04:25;102672.81;;;22.93;49.01
66273;BME280;58450;52.150;4.466;2023-05-29T11:06:56;102676.00;;;23.08;49.56
66273;BME280;58450;52.150;4.466;2023-05-29T11:09:31;102666.28;;;22.87;49.39
66273;BME280;58450;52.150;4.466;2023-05-29T11:12:22;102666.25;;;22.68;50.50
66273;BME280;58450;52.150;4.466;2023-05-29T11:14:55;102669.38;;;22.97;50.66
66273;BME280;58450;52.150;4.466;2023-05-29T11:17:44;102667.84;;;23.01;50.31
66273;BME280;58450;52.150;4.466;2023-05-29T11:20:28;102672.47;;;23.26;50.05
66273;BME280;58450;52.150;4.466;2023-05-29T11:23:05;102669.13;;;23.24;48.62
66273;BME280;58450;52.150;4.466;2023-05-29T11:25:36;102673.88;;;22.66;48.30
66273;BME280;58450;52.150;4.466;2023-05-29T11:28:04;102667.19;;;23.25;48.84
66273;BME280;58450;52.150;4.466;2023-05-29T11:30:45;102666.13;;;23.26;48.54
66273;BME280;58450;52.150;4.466;2023-05-29T11:33:20;102679.13;;;23.86;48.41
66273;BME280;58450;52.150;4.466;2023-05-29T11:35:58;102679.00;;;23.81;48.64
66273;BME280;58450;52.150;4.466;2023-05-29T11:38:26;102674.34;;;23.82;48.24
66273;BME280;58450;52.150;4.466;2023-05-29T11:40:55;102683.16;;;24.02;48.05
66273;BME280;58450;52.150;4.466;2023-05-29T11:43:24;102673.03;;;24.15;47.36
66273;BME280;58450;52.150;4.466;2023-05-29T11:45:52;102684.78;;;24.64;47.93
66273;BME280;58450;52.150;4.466;2023-05-29T11:48:21;102681.72;;;24.00;46.60
66273;BME280;58450;52.150;4.466;2023-05-29T11:50:49;102673.78;;;23.91;47.90
66273;BME280;58450;52.150;4.466;2023-05-29T11:53:17;102673.28;;;23.83;47.79
66273;BME280;58450;52.150;4.466;2023-05-29T11:55:44;102677.91;;;23.82;47.64
66273;BME280;58450;52.150;4.466;2023-05-29T11:58:12;102671.31;;;23.71;47.88
66273;BME280;58450;52.150;4.466;2023-05-29T12:00:42;102678.88;;;24.07;47.27
66273;BME280;58450;52.150;4.466;2023-05-29T12:03:11;102671.66;;;24.36;47.42
66273;BME280;58450;52.150;4.466;2023-05-29T12:05:46;102673.34;;;24.37;47.10
66273;BME280;58450;52.150;4.466;2023-05-29T12:08:21;102666.34;;;23.43;45.73
66273;BME280;58450;52.150;4.466;2023-05-29T12:10:50;102656.13;;;23.50;47.36
66273;BME280;58450;52.150;4.466;2023-05-29T12:13:19;102659.03;;;23.55;46.84
66273;BME280;58450;52.150;4.466;2023-05-29T12:15:49;102665.13;;;23.57;47.12
66273;BME280;58450;52.150;4.466;2023-05-29T12:18:19;102667.50;;;23.72;46.66
66273;BME280;58450;52.150;4.466;2023-05-29T12:20:48;102664.16;;;22.89;47.12
66273;BME280;58450;52.150;4.466;2023-05-29T12:23:18;102662.66;;;22.93;48.06
66273;BME280;58450;52.150;4.466;2023-05-29T12:25:49;102656.66;;;22.78;48.62
66273;BME280;58450;52.150;4.466;2023-05-29T12:28:18;102657.59;;;22.90;49.55
66273;BME280;58450;52.150;4.466;2023-05-29T12:30:47;102656.91;;;22.51;50.96
66273;BME280;58450;52.150;4.466;2023-05-29T12:33:27;102653.38;;;22.37;51.89
66273;BME280;58450;52.150;4.466;2023-05-29T12:36:03;102657.91;;;22.24;52.65
66273;BME280;58450;52.150;4.466;2023-05-29T12:38:32;102648.09;;;22.10;52.33
66273;BME280;58450;52.150;4.466;2023-05-29T12:41:00;102664.31;;;22.43;52.66
66273;BME280;58450;52.150;4.466;2023-05-29T12:43:28;102657.69;;;23.02;52.50
66273;BME280;58450;52.150;4.466;2023-05-29T12:45:55;102654.50;;;23.05;50.84
66273;BME280;58450;52.150;4.466;2023-05-29T12:48:27;102661.72;;;23.43;51.85
66273;BME280;58450;52.150;4.466;2023-05-29T12:50:54;102668.84;;;23.82;51.61
66273;BME280;58450;52.150;4.466;2023-05-29T12:53:28;102655.88;;;24.31;50.65
66273;BME280;58450;52.150;4.466;2023-05-29T12:55:56;102661.72;;;24.35;48.53
66273;BME280;58450;52.150;4.466;2023-05-29T12:58:24;102656.47;;;24.22;50.27